Warning: Javascript must be enabled to use all the features on this page!


Page Loading - Please Wait...

Click to hideNews Bulletins

Peak Streamflow for the Nation

USGS 08050100 Mountain Ck at Grand Prairie, TX

Dallas County, Texas
Hydrologic Unit Code 12030102
Latitude  32°44'59.5", Longitude  96°55'34.0" NAD83
Drainage area 298  square miles
Contributing drainage area 298  square miles
Gage datum 401.26 feet above NAVD88
Output formats
Table
Graph
Tab-separated file
peakfq (watstore) format
Reselect output format
Water
Year
Date Gage
Height
(feet)
Stream-
flow
(cfs)
1961 1961-06-25 15.38 5,1606
1962 1962-09-08 15.48 5,2306
1963 1963-04-28 18.40 8,1606
1964 1964-04-22 15.44 5,1606
1965 1965-02-09 20.37 11,6006
1966 1966-04-25 21.80 19,7006
1967 1966-10-04 11.30 2,4606
1968 1968-05-13 19.81 11,0006
1969 1969-05-07 24.62 35,0006
1970 1970-04-26 20.77 14,8006
1971 1970-10-23 12.06 3,7806
1972 1971-12-10 20.87 15,0006
1973 1973-06-04 23.28 25,9006
1974 1974-05-05 19.30 11,3006
1975 1975-02-02 19.24 9,9906
1976 1976-04-19 24.21 38,1006
1977 1977-03-28 22.97 27,3006
1978 1978-05-24 8.11 2,2906
1979 1979-05-04 22.74 25,7006
1980 1980-05-02 11.52 4,0406
1981 1981-05-09 16.95 8,1506
1982 1982-05-19 13.63 3,6506
1983 1983-06-14 14.18 5,7806
1984 1984-03-24 15.60 7,1506
1985 1984-12-31 16.286 5,3506
1986 1986-06-02 21.55 10,3006
1987 1987-05-29 11.09 2,3306
1988 1988-06-01 8.86 1,3506
1989 1989-05-05 23.93 15,3006
1990 1990-05-03 22.31 11,3006
1991 1991-05-25 12.79 3,7506
1992 1991-12-20 25.12 17,9006
1993 1993-02-25 20.58 9,1806
1994 1993-10-19 18.83 7,3606
1995 1995-03-13 22.72 11,3006
1996 1995-12-21 8.16 1,2206
1997 1997-02-12 21.22 9,4706
1998 1997-12-21 21.22 9,4706
1999 1998-12-04 13.52 3,4806
2000 2000-06-04 18.70 7,2406
2001 2001-02-16 23.68 14,2006
2002 2002-01-31 19.93 8,4306
2003 2002-10-19 21.67 10,5006
2004 2004-07-29 25.881 10,7001,6
2005 2004-11-22 18.54 7,0006
2006 2006-03-19 28.57 8,9602,6
2007 2007-06-27 23.53 14,1006
2008 2008-03-18 22.47 11,5006
2009 2009-09-13 23.58 10,0006
2010 2010-09-08 23.45 9,5706
2011 2011-05-02 15.89 3,0806
2012 2012-01-25 21.56 7,4706
2013 2013-05-16 10.252 2,4806
2014 2013-12-21 11.65 2,7506
2015 2015-05-29 24.821 10,5002,6
2016 2015-11-27 26.401,3 16,3006
2017 2017-06-24 17.45 3,8406
2018 2018-09-22 25.491 11,9002,6
2019 2019-05-11 24.291 8,6702,6
2020 2020-03-16 21.571 5,9202,6
2021 2021-06-01 19.79 4,8806
?
  Peak Gage-Height Qualification Codes.
?
  Peak Streamflow Qualification Codes.